AIRPORT_AIRPORT_METAR
METAR FOR LYNI
ADDS - METARS form results

(2245 UTC 06 December 2019)
Data provider http://aviationweather.gov/metar/data/
 
METAR text: LYNI 062230Z VRB02KT 3000 BR NSC 00/M01 Q1023 NOSIG
Conditions at: LYNI (NIS , CS) observed 2230 UTC 06 December 2019
Temperature: 0.0°C (32°F)
Dewpoint: -1.0°C (30°F) [RH = 93%]
Pressure (altimeter): 30.21 inches Hg (1023.0 mb)
Winds: variable direction winds at 2 MPH (2 knots; 1.0 m/s)
Visibility: 1.86 miles (2.99 km)
Ceiling: at least 12,000 feet AGL
Clouds: sky clear below 12,000 feet AGL
Weather: BR  (mist)

METAR text: LYNI 062200Z 18003KT 4000 BR NSC M01/M02 Q1023 NOSIG
Conditions at: LYNI (NIS , CS) observed 2200 UTC 06 December 2019
Temperature: -1.0°C (30°F)
Dewpoint: -2.0°C (28°F) [RH = 93%]
Pressure (altimeter): 30.21 inches Hg (1023.0 mb)
Winds: from the S (180 degrees) at 3 MPH (3 knots; 1.5 m/s)
Visibility: 2.49 miles (4.01 km)
Ceiling: at least 12,000 feet AGL
Clouds: sky clear below 12,000 feet AGL
Weather: BR  (mist)

Forecast for: LYNI (NIS , CS)
Text: TAF LYNI 061700Z 0618/0718 12005KT CAVOK TX12/0713Z TN01/0705Z
Forecast period: 1800 UTC 06 December 2019 to 1800 UTC 07 December 2019
Forecast type: FROM: standard forecast or significant change
Winds: from the ESE (120 degrees) at 6 MPH (5 knots; 2.6 m/s)
Visibility: 6 or more miles 10+ km)
Ceiling: unknown
Clouds: missing
Weather: no significant weather forecast for this period
Text: TEMPO 0623/0713 5000 RA BKN013 BKN025
Forecast period: 2300 UTC 06 December 2019 to 1300 UTC 07 December 2019
Forecast type: TEMPORARY: The following changes expected for less than half the time period
Visibility: 3 miles (5 km)
Ceiling: 1300 feet AGL
Clouds: broken clouds at 1300 feet AGL
broken clouds at 2500 feet AGL
Weather: RA  (moderate rain)

 AIRPORT_AIRPORT_MAP

 AIRPORT_RUNWAY_INFO
AIRPORT_RUNWAY 11 AIRPORT_RUNWAY_LENGTH 8202 ft AIRPORT_RUNWAY_WIDTH 148 ft
AIRPORT_RUNWAY_ELEVATION 644 ft AIRPORT_RUNWAY_THRESHOLD 719 ft AIRPORT_RUNWAY_HEADING 113
AIRPORT_RUNWAY 29 AIRPORT_RUNWAY_LENGTH 8202 ft AIRPORT_RUNWAY_WIDTH 148 ft
AIRPORT_RUNWAY_ELEVATION 646 ft AIRPORT_RUNWAY_THRESHOLD 985 ft AIRPORT_RUNWAY_HEADING 293

 AIRPORT_AIRPORT_FREQUENCIES
AIRPORT_AIRPORT_NAVAIDS_TYPE APP AIRPORT_AIRPORT_NAVAIDS_NAME APP AIRPORT_AIRPORT_NAVAIDS_FREQ 129.325 MHZ
AIRPORT_AIRPORT_NAVAIDS_TYPE TWR AIRPORT_AIRPORT_NAVAIDS_NAME TWR AIRPORT_AIRPORT_NAVAIDS_FREQ 129.325 MHZ

 AIRPORT_AIRPORT_NAVAIDS
AIRPORT_AIRPORT_NAVAIDS_TYPE VOR-DME AIRPORT_AIRPORT_NAVAIDS_NAME Nis AIRPORT_AIRPORT_NAVAIDS_FREQ 113900 KHZ



Copyright © 2005-2019 - Virtuel Air Alsace - Tous droits réservés